sensor_id;sensor_type;location;lat;lon;timestamp;P1;durP1;ratioP1;P2;durP2;ratioP2
65187;SDS011;51775;51.148;6.950;2023-01-01T00:01:30;4.72;;;3.20;;
65187;SDS011;51775;51.148;6.950;2023-01-01T00:03:56;5.55;;;3.70;;
65187;SDS011;51775;51.148;6.950;2023-01-01T00:06:22;6.13;;;3.67;;
65187;SDS011;51775;51.148;6.950;2023-01-01T00:08:49;7.40;;;4.10;;
65187;SDS011;51775;51.148;6.950;2023-01-01T00:11:14;5.88;;;4.07;;
65187;SDS011;51775;51.148;6.950;2023-01-01T00:13:40;6.43;;;4.20;;
65187;SDS011;51775;51.148;6.950;2023-01-01T00:16:07;7.22;;;4.35;;
65187;SDS011;51775;51.148;6.950;2023-01-01T00:18:34;7.63;;;4.95;;
65187;SDS011;51775;51.148;6.950;2023-01-01T00:21:10;7.78;;;4.93;;
65187;SDS011;51775;51.148;6.950;2023-01-01T00:23:38;8.55;;;4.97;;
65187;SDS011;51775;51.148;6.950;2023-01-01T00:26:10;7.03;;;5.15;;
65187;SDS011;51775;51.148;6.950;2023-01-01T00:28:36;7.05;;;4.85;;
65187;SDS011;51775;51.148;6.950;2023-01-01T00:31:06;9.30;;;5.78;;
65187;SDS011;51775;51.148;6.950;2023-01-01T00:33:35;8.20;;;5.50;;
65187;SDS011;51775;51.148;6.950;2023-01-01T00:36:06;9.10;;;5.97;;
65187;SDS011;51775;51.148;6.950;2023-01-01T00:38:33;9.05;;;6.43;;
65187;SDS011;51775;51.148;6.950;2023-01-01T00:40:59;8.73;;;5.47;;
65187;SDS011;51775;51.148;6.950;2023-01-01T00:43:25;9.30;;;6.05;;
65187;SDS011;51775;51.148;6.950;2023-01-01T00:45:50;9.60;;;6.10;;
65187;SDS011;51775;51.148;6.950;2023-01-01T00:48:15;9.77;;;6.65;;
65187;SDS011;51775;51.148;6.950;2023-01-01T00:50:41;8.68;;;5.68;;
65187;SDS011;51775;51.148;6.950;2023-01-01T00:53:06;10.50;;;6.75;;
65187;SDS011;51775;51.148;6.950;2023-01-01T00:55:31;10.07;;;6.70;;
65187;SDS011;51775;51.148;6.950;2023-01-01T00:57:57;10.07;;;6.32;;
65187;SDS011;51775;51.148;6.950;2023-01-01T01:00:22;10.40;;;6.78;;
65187;SDS011;51775;51.148;6.950;2023-01-01T01:02:47;10.93;;;7.03;;
65187;SDS011;51775;51.148;6.950;2023-01-01T01:05:13;10.27;;;6.63;;
65187;SDS011;51775;51.148;6.950;2023-01-01T01:07:38;10.32;;;6.95;;
65187;SDS011;51775;51.148;6.950;2023-01-01T01:10:03;11.27;;;7.20;;
65187;SDS011;51775;51.148;6.950;2023-01-01T01:12:29;10.63;;;6.90;;
65187;SDS011;51775;51.148;6.950;2023-01-01T01:14:54;10.35;;;6.90;;
65187;SDS011;51775;51.148;6.950;2023-01-01T01:17:20;10.85;;;6.80;;
65187;SDS011;51775;51.148;6.950;2023-01-01T01:19:45;9.90;;;7.07;;
65187;SDS011;51775;51.148;6.950;2023-01-01T01:22:10;10.85;;;7.45;;
65187;SDS011;51775;51.148;6.950;2023-01-01T01:24:35;14.73;;;7.00;;
65187;SDS011;51775;51.148;6.950;2023-01-01T01:27:01;10.75;;;7.28;;
65187;SDS011;51775;51.148;6.950;2023-01-01T01:29:26;10.63;;;7.13;;
65187;SDS011;51775;51.148;6.950;2023-01-01T01:31:51;11.55;;;7.38;;
65187;SDS011;51775;51.148;6.950;2023-01-01T01:34:17;9.60;;;6.80;;
65187;SDS011;51775;51.148;6.950;2023-01-01T01:36:42;9.63;;;6.60;;
65187;SDS011;51775;51.148;6.950;2023-01-01T01:39:09;10.32;;;6.43;;
65187;SDS011;51775;51.148;6.950;2023-01-01T01:41:35;10.63;;;6.22;;
65187;SDS011;51775;51.148;6.950;2023-01-01T01:44:02;8.77;;;5.85;;
65187;SDS011;51775;51.148;6.950;2023-01-01T01:46:32;8.80;;;5.93;;
65187;SDS011;51775;51.148;6.950;2023-01-01T01:49:02;10.48;;;5.85;;
65187;SDS011;51775;51.148;6.950;2023-01-01T01:51:36;9.45;;;6.05;;
65187;SDS011;51775;51.148;6.950;2023-01-01T01:54:04;9.68;;;5.60;;
65187;SDS011;51775;51.148;6.950;2023-01-01T01:56:39;8.88;;;5.63;;
65187;SDS011;51775;51.148;6.950;2023-01-01T01:59:11;7.45;;;5.20;;
65187;SDS011;51775;51.148;6.950;2023-01-01T02:01:37;7.75;;;5.35;;
65187;SDS011;51775;51.148;6.950;2023-01-01T02:04:03;7.45;;;4.60;;
65187;SDS011;51775;51.148;6.950;2023-01-01T02:06:29;7.20;;;4.70;;
65187;SDS011;51775;51.148;6.950;2023-01-01T02:08:56;6.68;;;4.65;;
65187;SDS011;51775;51.148;6.950;2023-01-01T02:11:24;7.10;;;4.60;;
65187;SDS011;51775;51.148;6.950;2023-01-01T02:13:50;6.78;;;4.57;;
65187;SDS011;51775;51.148;6.950;2023-01-01T02:22:05;7.13;;;4.35;;
65187;SDS011;51775;51.148;6.950;2023-01-01T02:30:00;5.85;;;4.28;;
65187;SDS011;51775;51.148;6.950;2023-01-01T02:32:35;5.88;;;4.07;;
65187;SDS011;51775;51.148;6.950;2023-01-01T02:35:13;5.78;;;4.10;;
65187;SDS011;51775;51.148;6.950;2023-01-01T02:37:43;5.15;;;3.28;;
65187;SDS011;51775;51.148;6.950;2023-01-01T02:40:09;6.15;;;3.47;;
65187;SDS011;51775;51.148;6.950;2023-01-01T02:42:35;6.20;;;3.58;;
65187;SDS011;51775;51.148;6.950;2023-01-01T02:45:00;6.90;;;3.58;;
65187;SDS011;51775;51.148;6.950;2023-01-01T02:47:26;4.82;;;3.42;;
65187;SDS011;51775;51.148;6.950;2023-01-01T02:52:34;6.22;;;3.30;;
65187;SDS011;51775;51.148;6.950;2023-01-01T02:55:08;5.93;;;3.17;;
65187;SDS011;51775;51.148;6.950;2023-01-01T02:57:49;4.80;;;3.28;;
65187;SDS011;51775;51.148;6.950;2023-01-01T03:00:21;8.57;;;3.33;;
65187;SDS011;51775;51.148;6.950;2023-01-01T03:05:27;4.97;;;3.15;;
65187;SDS011;51775;51.148;6.950;2023-01-01T03:08:20;4.70;;;2.90;;
65187;SDS011;51775;51.148;6.950;2023-01-01T03:11:03;4.55;;;2.85;;
65187;SDS011;51775;51.148;6.950;2023-01-01T03:16:01;5.70;;;2.90;;
65187;SDS011;51775;51.148;6.950;2023-01-01T03:18:53;3.60;;;2.63;;
65187;SDS011;51775;51.148;6.950;2023-01-01T03:21:32;4.43;;;2.88;;
65187;SDS011;51775;51.148;6.950;2023-01-01T03:23:58;4.93;;;3.17;;
65187;SDS011;51775;51.148;6.950;2023-01-01T03:26:23;4.75;;;2.90;;
65187;SDS011;51775;51.148;6.950;2023-01-01T03:28:52;4.40;;;2.50;;
65187;SDS011;51775;51.148;6.950;2023-01-01T03:31:22;4.45;;;2.40;;
65187;SDS011;51775;51.148;6.950;2023-01-01T03:33:55;3.35;;;2.15;;
65187;SDS011;51775;51.148;6.950;2023-01-01T03:36:29;3.28;;;2.30;;
65187;SDS011;51775;51.148;6.950;2023-01-01T03:39:00;4.55;;;2.40;;
65187;SDS011;51775;51.148;6.950;2023-01-01T03:41:40;3.30;;;2.25;;
65187;SDS011;51775;51.148;6.950;2023-01-01T03:44:12;3.55;;;2.25;;
65187;SDS011;51775;51.148;6.950;2023-01-01T03:46:38;3.47;;;2.25;;
65187;SDS011;51775;51.148;6.950;2023-01-01T03:49:05;3.40;;;2.00;;
65187;SDS011;51775;51.148;6.950;2023-01-01T03:59:41;3.17;;;2.00;;
65187;SDS011;51775;51.148;6.950;2023-01-01T04:02:14;3.13;;;1.95;;
65187;SDS011;51775;51.148;6.950;2023-01-01T04:04:42;3.67;;;1.98;;
65187;SDS011;51775;51.148;6.950;2023-01-01T04:07:08;3.13;;;1.90;;
65187;SDS011;51775;51.148;6.950;2023-01-01T04:09:33;4.10;;;2.05;;
65187;SDS011;51775;51.148;6.950;2023-01-01T04:12:00;3.08;;;2.03;;
65187;SDS011;51775;51.148;6.950;2023-01-01T04:14:29;3.17;;;1.70;;
65187;SDS011;51775;51.148;6.950;2023-01-01T04:16:57;2.67;;;1.85;;
65187;SDS011;51775;51.148;6.950;2023-01-01T04:19:23;2.58;;;1.70;;
65187;SDS011;51775;51.148;6.950;2023-01-01T04:21:48;2.83;;;1.73;;
65187;SDS011;51775;51.148;6.950;2023-01-01T04:24:15;3.20;;;1.65;;
65187;SDS011;51775;51.148;6.950;2023-01-01T04:26:40;3.13;;;1.83;;
65187;SDS011;51775;51.148;6.950;2023-01-01T04:29:06;3.75;;;1.67;;
65187;SDS011;51775;51.148;6.950;2023-01-01T04:31:32;2.60;;;1.60;;
65187;SDS011;51775;51.148;6.950;2023-01-01T04:33:58;2.72;;;1.67;;
65187;SDS011;51775;51.148;6.950;2023-01-01T04:36:23;2.30;;;1.70;;
65187;SDS011;51775;51.148;6.950;2023-01-01T04:38:49;2.70;;;1.50;;
65187;SDS011;51775;51.148;6.950;2023-01-01T04:41:14;2.72;;;1.63;;
65187;SDS011;51775;51.148;6.950;2023-01-01T04:43:39;3.05;;;1.48;;
65187;SDS011;51775;51.148;6.950;2023-01-01T04:46:05;3.75;;;1.80;;
65187;SDS011;51775;51.148;6.950;2023-01-01T04:48:30;2.08;;;1.45;;
65187;SDS011;51775;51.148;6.950;2023-01-01T04:51:00;2.33;;;1.40;;
65187;SDS011;51775;51.148;6.950;2023-01-01T04:53:28;2.40;;;1.55;;
65187;SDS011;51775;51.148;6.950;2023-01-01T04:55:54;2.33;;;1.42;;
65187;SDS011;51775;51.148;6.950;2023-01-01T04:58:20;2.67;;;1.60;;
65187;SDS011;51775;51.148;6.950;2023-01-01T05:00:49;2.85;;;1.63;;
65187;SDS011;51775;51.148;6.950;2023-01-01T05:03:16;2.83;;;1.50;;
65187;SDS011;51775;51.148;6.950;2023-01-01T05:05:42;2.30;;;1.40;;
65187;SDS011;51775;51.148;6.950;2023-01-01T05:08:07;2.38;;;1.40;;
65187;SDS011;51775;51.148;6.950;2023-01-01T05:10:32;2.28;;;1.30;;
65187;SDS011;51775;51.148;6.950;2023-01-01T05:12:58;2.50;;;1.30;;
65187;SDS011;51775;51.148;6.950;2023-01-01T05:15:23;2.78;;;1.30;;
65187;SDS011;51775;51.148;6.950;2023-01-01T05:17:48;2.25;;;1.40;;
65187;SDS011;51775;51.148;6.950;2023-01-01T05:20:13;1.90;;;1.30;;
65187;SDS011;51775;51.148;6.950;2023-01-01T05:22:39;2.40;;;1.35;;
65187;SDS011;51775;51.148;6.950;2023-01-01T05:25:04;2.60;;;1.45;;
65187;SDS011;51775;51.148;6.950;2023-01-01T05:27:30;2.80;;;1.27;;
65187;SDS011;51775;51.148;6.950;2023-01-01T05:29:55;2.03;;;1.30;;
65187;SDS011;51775;51.148;6.950;2023-01-01T05:32:20;2.55;;;1.20;;
65187;SDS011;51775;51.148;6.950;2023-01-01T05:34:46;1.75;;;1.20;;
65187;SDS011;51775;51.148;6.950;2023-01-01T05:37:11;2.03;;;1.10;;
65187;SDS011;51775;51.148;6.950;2023-01-01T05:39:36;1.95;;;1.25;;
65187;SDS011;51775;51.148;6.950;2023-01-01T05:42:01;1.60;;;1.10;;
65187;SDS011;51775;51.148;6.950;2023-01-01T05:44:27;2.40;;;1.42;;
65187;SDS011;51775;51.148;6.950;2023-01-01T05:46:52;2.25;;;1.35;;
65187;SDS011;51775;51.148;6.950;2023-01-01T05:49:17;2.17;;;1.30;;
65187;SDS011;51775;51.148;6.950;2023-01-01T05:51:43;2.10;;;1.05;;
65187;SDS011;51775;51.148;6.950;2023-01-01T05:54:08;1.80;;;1.10;;
65187;SDS011;51775;51.148;6.950;2023-01-01T05:56:34;2.58;;;1.10;;
65187;SDS011;51775;51.148;6.950;2023-01-01T05:58:59;2.05;;;1.15;;
65187;SDS011;51775;51.148;6.950;2023-01-01T06:01:28;1.90;;;1.10;;
65187;SDS011;51775;51.148;6.950;2023-01-01T06:03:55;2.30;;;1.13;;
65187;SDS011;51775;51.148;6.950;2023-01-01T06:06:23;1.85;;;1.10;;
65187;SDS011;51775;51.148;6.950;2023-01-01T06:08:50;2.22;;;1.00;;
65187;SDS011;51775;51.148;6.950;2023-01-01T06:11:17;1.38;;;0.93;;
65187;SDS011;51775;51.148;6.950;2023-01-01T06:13:42;1.85;;;1.10;;
65187;SDS011;51775;51.148;6.950;2023-01-01T06:16:08;1.90;;;1.02;;
65187;SDS011;51775;51.148;6.950;2023-01-01T06:18:34;1.92;;;1.10;;
65187;SDS011;51775;51.148;6.950;2023-01-01T06:21:03;2.90;;;1.10;;
65187;SDS011;51775;51.148;6.950;2023-01-01T06:23:29;2.05;;;1.17;;
65187;SDS011;51775;51.148;6.950;2023-01-01T06:25:54;1.70;;;1.00;;
65187;SDS011;51775;51.148;6.950;2023-01-01T06:28:19;1.60;;;1.00;;
65187;SDS011;51775;51.148;6.950;2023-01-01T06:30:45;1.60;;;1.00;;
65187;SDS011;51775;51.148;6.950;2023-01-01T06:33:10;1.88;;;1.00;;
65187;SDS011;51775;51.148;6.950;2023-01-01T06:35:35;1.80;;;1.10;;
65187;SDS011;51775;51.148;6.950;2023-01-01T06:38:01;1.65;;;1.00;;
65187;SDS011;51775;51.148;6.950;2023-01-01T06:40:26;2.08;;;1.08;;
65187;SDS011;51775;51.148;6.950;2023-01-01T06:42:51;1.60;;;1.00;;
65187;SDS011;51775;51.148;6.950;2023-01-01T06:45:16;1.40;;;0.90;;
65187;SDS011;51775;51.148;6.950;2023-01-01T06:47:42;1.70;;;0.90;;
65187;SDS011;51775;51.148;6.950;2023-01-01T06:50:07;1.52;;;1.00;;
65187;SDS011;51775;51.148;6.950;2023-01-01T06:52:32;1.75;;;1.00;;
65187;SDS011;51775;51.148;6.950;2023-01-01T06:54:58;1.67;;;0.90;;
65187;SDS011;51775;51.148;6.950;2023-01-01T06:57:23;1.50;;;0.90;;
65187;SDS011;51775;51.148;6.950;2023-01-01T06:59:48;1.30;;;0.80;;
65187;SDS011;51775;51.148;6.950;2023-01-01T07:02:13;1.73;;;1.00;;
65187;SDS011;51775;51.148;6.950;2023-01-01T07:04:39;1.50;;;0.82;;
65187;SDS011;51775;51.148;6.950;2023-01-01T07:07:04;1.45;;;0.95;;
65187;SDS011;51775;51.148;6.950;2023-01-01T07:09:29;1.15;;;0.85;;
65187;SDS011;51775;51.148;6.950;2023-01-01T07:11:55;1.65;;;0.90;;
65187;SDS011;51775;51.148;6.950;2023-01-01T07:14:20;2.13;;;0.90;;
65187;SDS011;51775;51.148;6.950;2023-01-01T07:16:45;1.70;;;1.00;;
65187;SDS011;51775;51.148;6.950;2023-01-01T07:19:10;1.33;;;0.90;;
65187;SDS011;51775;51.148;6.950;2023-01-01T07:21:42;2.38;;;1.00;;
65187;SDS011;51775;51.148;6.950;2023-01-01T07:24:11;0.90;;;0.70;;
65187;SDS011;51775;51.148;6.950;2023-01-01T07:26:37;1.10;;;0.80;;
65187;SDS011;51775;51.148;6.950;2023-01-01T07:29:03;1.70;;;0.90;;
65187;SDS011;51775;51.148;6.950;2023-01-01T07:31:28;1.50;;;0.90;;
65187;SDS011;51775;51.148;6.950;2023-01-01T07:33:53;1.63;;;0.90;;
65187;SDS011;51775;51.148;6.950;2023-01-01T07:36:19;1.13;;;0.70;;
65187;SDS011;51775;51.148;6.950;2023-01-01T07:38:44;1.23;;;0.80;;
65187;SDS011;51775;51.148;6.950;2023-01-01T07:41:09;1.15;;;0.77;;
65187;SDS011;51775;51.148;6.950;2023-01-01T07:43:34;2.03;;;0.82;;
65187;SDS011;51775;51.148;6.950;2023-01-01T07:46:00;0.82;;;0.70;;
65187;SDS011;51775;51.148;6.950;2023-01-01T07:48:25;1.10;;;0.77;;
65187;SDS011;51775;51.148;6.950;2023-01-01T07:50:51;1.25;;;0.80;;
65187;SDS011;51775;51.148;6.950;2023-01-01T07:53:16;1.10;;;0.80;;
65187;SDS011;51775;51.148;6.950;2023-01-01T07:55:41;1.80;;;0.80;;
65187;SDS011;51775;51.148;6.950;2023-01-01T07:58:07;1.75;;;0.90;;
65187;SDS011;51775;51.148;6.950;2023-01-01T08:00:35;2.15;;;0.90;;
65187;SDS011;51775;51.148;6.950;2023-01-01T08:03:00;1.33;;;0.80;;
65187;SDS011;51775;51.148;6.950;2023-01-01T08:05:25;1.67;;;0.90;;
65187;SDS011;51775;51.148;6.950;2023-01-01T08:07:50;1.30;;;0.75;;
65187;SDS011;51775;51.148;6.950;2023-01-01T08:10:16;2.50;;;0.90;;
65187;SDS011;51775;51.148;6.950;2023-01-01T08:12:43;1.70;;;0.82;;
65187;SDS011;51775;51.148;6.950;2023-01-01T08:15:08;1.67;;;0.85;;
65187;SDS011;51775;51.148;6.950;2023-01-01T08:17:36;1.25;;;0.73;;
65187;SDS011;51775;51.148;6.950;2023-01-01T08:20:02;1.15;;;0.80;;
65187;SDS011;51775;51.148;6.950;2023-01-01T08:22:28;3.17;;;1.00;;
65187;SDS011;51775;51.148;6.950;2023-01-01T08:24:53;1.42;;;0.70;;
65187;SDS011;51775;51.148;6.950;2023-01-01T08:27:18;1.55;;;1.00;;
65187;SDS011;51775;51.148;6.950;2023-01-01T08:29:44;1.50;;;0.85;;
65187;SDS011;51775;51.148;6.950;2023-01-01T08:32:10;1.48;;;0.80;;
65187;SDS011;51775;51.148;6.950;2023-01-01T08:34:35;1.20;;;0.70;;
65187;SDS011;51775;51.148;6.950;2023-01-01T08:37:01;1.80;;;0.88;;
65187;SDS011;51775;51.148;6.950;2023-01-01T08:39:26;1.77;;;0.90;;
65187;SDS011;51775;51.148;6.950;2023-01-01T08:41:52;1.83;;;0.75;;
65187;SDS011;51775;51.148;6.950;2023-01-01T08:44:17;1.48;;;0.88;;
65187;SDS011;51775;51.148;6.950;2023-01-01T08:46:43;8.45;;;0.90;;
65187;SDS011;51775;51.148;6.950;2023-01-01T08:49:08;1.67;;;0.90;;
65187;SDS011;51775;51.148;6.950;2023-01-01T08:51:34;2.47;;;0.80;;
65187;SDS011;51775;51.148;6.950;2023-01-01T08:53:59;1.90;;;0.80;;
65187;SDS011;51775;51.148;6.950;2023-01-01T08:56:24;1.90;;;0.80;;
65187;SDS011;51775;51.148;6.950;2023-01-01T08:58:49;1.60;;;0.90;;
65187;SDS011;51775;51.148;6.950;2023-01-01T09:01:15;3.30;;;0.80;;
65187;SDS011;51775;51.148;6.950;2023-01-01T09:03:40;1.65;;;0.88;;
65187;SDS011;51775;51.148;6.950;2023-01-01T09:06:05;1.77;;;0.93;;
65187;SDS011;51775;51.148;6.950;2023-01-01T09:08:31;1.83;;;0.88;;
65187;SDS011;51775;51.148;6.950;2023-01-01T09:10:57;6.47;;;2.63;;
65187;SDS011;51775;51.148;6.950;2023-01-01T09:13:26;7.30;;;3.60;;
65187;SDS011;51775;51.148;6.950;2023-01-01T09:15:52;8.73;;;3.40;;
65187;SDS011;51775;51.148;6.950;2023-01-01T09:18:17;6.85;;;3.13;;
65187;SDS011;51775;51.148;6.950;2023-01-01T09:20:43;6.82;;;3.00;;
65187;SDS011;51775;51.148;6.950;2023-01-01T09:23:09;7.13;;;2.92;;
65187;SDS011;51775;51.148;6.950;2023-01-01T09:25:35;6.00;;;2.78;;
65187;SDS011;51775;51.148;6.950;2023-01-01T09:28:04;6.63;;;2.47;;
65187;SDS011;51775;51.148;6.950;2023-01-01T09:30:32;6.40;;;2.17;;
65187;SDS011;51775;51.148;6.950;2023-01-01T09:32:58;4.47;;;2.20;;
65187;SDS011;51775;51.148;6.950;2023-01-01T09:35:23;5.28;;;2.42;;
65187;SDS011;51775;51.148;6.950;2023-01-01T09:37:49;4.75;;;2.28;;
65187;SDS011;51775;51.148;6.950;2023-01-01T09:40:59;5.88;;;1.92;;
65187;SDS011;51775;51.148;6.950;2023-01-01T09:46:12;4.10;;;2.00;;
65187;SDS011;51775;51.148;6.950;2023-01-01T09:48:40;3.70;;;1.92;;
65187;SDS011;51775;51.148;6.950;2023-01-01T09:51:13;4.40;;;1.92;;
65187;SDS011;51775;51.148;6.950;2023-01-01T09:56:24;3.67;;;1.63;;
65187;SDS011;51775;51.148;6.950;2023-01-01T09:58:52;10.63;;;1.90;;
65187;SDS011;51775;51.148;6.950;2023-01-01T10:12:59;2.60;;;1.35;;
65187;SDS011;51775;51.148;6.950;2023-01-01T10:15:33;4.07;;;1.42;;
65187;SDS011;51775;51.148;6.950;2023-01-01T10:18:03;3.25;;;1.52;;
65187;SDS011;51775;51.148;6.950;2023-01-01T10:20:36;4.35;;;1.40;;
65187;SDS011;51775;51.148;6.950;2023-01-01T10:23:11;4.60;;;1.40;;
65187;SDS011;51775;51.148;6.950;2023-01-01T10:25:39;2.67;;;1.30;;
65187;SDS011;51775;51.148;6.950;2023-01-01T10:28:14;2.13;;;1.20;;
65187;SDS011;51775;51.148;6.950;2023-01-01T10:30:45;3.92;;;1.38;;
65187;SDS011;51775;51.148;6.950;2023-01-01T10:33:11;3.58;;;1.30;;
65187;SDS011;51775;51.148;6.950;2023-01-01T10:35:39;6.80;;;1.80;;
65187;SDS011;51775;51.148;6.950;2023-01-01T10:38:25;31.88;;;5.57;;
65187;SDS011;51775;51.148;6.950;2023-01-01T10:40:52;34.20;;;5.72;;
65187;SDS011;51775;51.148;6.950;2023-01-01T10:43:22;22.90;;;5.22;;
65187;SDS011;51775;51.148;6.950;2023-01-01T10:45:49;23.02;;;4.82;;
65187;SDS011;51775;51.148;6.950;2023-01-01T10:48:24;20.83;;;4.47;;
65187;SDS011;51775;51.148;6.950;2023-01-01T10:51:00;24.40;;;4.43;;
65187;SDS011;51775;51.148;6.950;2023-01-01T11:01:19;12.52;;;2.70;;
65187;SDS011;51775;51.148;6.950;2023-01-01T11:06:33;9.68;;;2.60;;
65187;SDS011;51775;51.148;6.950;2023-01-01T11:09:00;11.73;;;2.35;;
65187;SDS011;51775;51.148;6.950;2023-01-01T11:11:29;10.98;;;2.25;;
65187;SDS011;51775;51.148;6.950;2023-01-01T11:14:12;9.45;;;2.40;;
65187;SDS011;51775;51.148;6.950;2023-01-01T11:16:44;7.38;;;1.98;;
65187;SDS011;51775;51.148;6.950;2023-01-01T11:19:14;8.18;;;1.95;;
65187;SDS011;51775;51.148;6.950;2023-01-01T11:21:46;7.35;;;2.10;;
65187;SDS011;51775;51.148;6.950;2023-01-01T11:24:16;7.03;;;2.35;;
65187;SDS011;51775;51.148;6.950;2023-01-01T11:26:47;6.53;;;1.83;;
65187;SDS011;51775;51.148;6.950;2023-01-01T11:31:40;8.10;;;1.85;;
65187;SDS011;51775;51.148;6.950;2023-01-01T11:34:20;6.13;;;1.40;;
65187;SDS011;51775;51.148;6.950;2023-01-01T11:36:51;3.38;;;1.55;;
65187;SDS011;51775;51.148;6.950;2023-01-01T11:39:29;3.83;;;1.23;;
65187;SDS011;51775;51.148;6.950;2023-01-01T11:41:57;4.03;;;1.63;;
65187;SDS011;51775;51.148;6.950;2023-01-01T11:44:36;6.80;;;1.60;;
65187;SDS011;51775;51.148;6.950;2023-01-01T11:47:06;4.80;;;1.50;;
65187;SDS011;51775;51.148;6.950;2023-01-01T11:49:51;2.83;;;1.17;;
65187;SDS011;51775;51.148;6.950;2023-01-01T11:52:34;4.85;;;1.27;;
65187;SDS011;51775;51.148;6.950;2023-01-01T11:55:02;4.72;;;1.40;;
65187;SDS011;51775;51.148;6.950;2023-01-01T11:57:37;4.63;;;1.00;;
65187;SDS011;51775;51.148;6.950;2023-01-01T12:00:05;3.53;;;1.20;;
65187;SDS011;51775;51.148;6.950;2023-01-01T12:02:41;3.70;;;1.27;;
65187;SDS011;51775;51.148;6.950;2023-01-01T12:07:50;5.93;;;1.20;;
65187;SDS011;51775;51.148;6.950;2023-01-01T12:10:26;4.38;;;1.10;;
65187;SDS011;51775;51.148;6.950;2023-01-01T12:13:01;3.85;;;1.02;;
65187;SDS011;51775;51.148;6.950;2023-01-01T12:15:34;2.53;;;1.02;;
65187;SDS011;51775;51.148;6.950;2023-01-01T12:20:42;3.42;;;1.00;;
65187;SDS011;51775;51.148;6.950;2023-01-01T12:23:13;2.53;;;1.00;;
65187;SDS011;51775;51.148;6.950;2023-01-01T12:25:45;2.22;;;1.00;;
65187;SDS011;51775;51.148;6.950;2023-01-01T12:34:18;4.45;;;1.10;;
65187;SDS011;51775;51.148;6.950;2023-01-01T12:42:43;2.47;;;1.00;;
65187;SDS011;51775;51.148;6.950;2023-01-01T12:45:31;3.13;;;1.00;;
65187;SDS011;51775;51.148;6.950;2023-01-01T12:58:31;2.13;;;0.80;;
65187;SDS011;51775;51.148;6.950;2023-01-01T13:01:35;1.42;;;0.80;;
65187;SDS011;51775;51.148;6.950;2023-01-01T13:03:58;5.37;;;1.30;;
65187;SDS011;51775;51.148;6.950;2023-01-01T13:06:39;1.88;;;1.10;;
65187;SDS011;51775;51.148;6.950;2023-01-01T13:09:10;4.32;;;0.90;;
65187;SDS011;51775;51.148;6.950;2023-01-01T13:11:45;4.70;;;1.10;;
65187;SDS011;51775;51.148;6.950;2023-01-01T13:14:23;3.47;;;1.10;;
65187;SDS011;51775;51.148;6.950;2023-01-01T13:16:50;3.50;;;0.98;;
65187;SDS011;51775;51.148;6.950;2023-01-01T13:19:25;3.03;;;0.95;;
65187;SDS011;51775;51.148;6.950;2023-01-01T13:21:55;2.85;;;0.90;;
65187;SDS011;51775;51.148;6.950;2023-01-01T13:24:21;4.05;;;1.10;;
65187;SDS011;51775;51.148;6.950;2023-01-01T13:26:49;8.35;;;1.20;;
65187;SDS011;51775;51.148;6.950;2023-01-01T13:37:29;1.55;;;0.80;;
65187;SDS011;51775;51.148;6.950;2023-01-01T13:45:30;1.98;;;0.90;;
65187;SDS011;51775;51.148;6.950;2023-01-01T14:09:41;6.05;;;0.82;;
65187;SDS011;51775;51.148;6.950;2023-01-01T14:12:08;4.28;;;0.85;;
65187;SDS011;51775;51.148;6.950;2023-01-01T14:14:34;1.73;;;0.77;;
65187;SDS011;51775;51.148;6.950;2023-01-01T14:17:00;4.13;;;0.80;;
65187;SDS011;51775;51.148;6.950;2023-01-01T14:19:29;3.78;;;1.00;;
65187;SDS011;51775;51.148;6.950;2023-01-01T14:21:56;1.95;;;0.90;;
65187;SDS011;51775;51.148;6.950;2023-01-01T14:24:22;3.08;;;1.10;;
65187;SDS011;51775;51.148;6.950;2023-01-01T14:26:49;1.33;;;0.70;;
65187;SDS011;51775;51.148;6.950;2023-01-01T14:29:36;2.80;;;1.00;;
65187;SDS011;51775;51.148;6.950;2023-01-01T14:32:10;1.23;;;0.70;;
65187;SDS011;51775;51.148;6.950;2023-01-01T14:34:38;2.08;;;0.77;;
65187;SDS011;51775;51.148;6.950;2023-01-01T14:37:04;1.67;;;0.80;;
65187;SDS011;51775;51.148;6.950;2023-01-01T14:39:31;1.38;;;0.73;;
65187;SDS011;51775;51.148;6.950;2023-01-01T14:41:59;1.80;;;0.77;;
65187;SDS011;51775;51.148;6.950;2023-01-01T14:44:47;2.05;;;0.82;;
65187;SDS011;51775;51.148;6.950;2023-01-01T14:49:46;2.05;;;0.90;;
65187;SDS011;51775;51.148;6.950;2023-01-01T14:52:14;2.60;;;0.98;;
65187;SDS011;51775;51.148;6.950;2023-01-01T14:54:46;1.30;;;0.75;;
65187;SDS011;51775;51.148;6.950;2023-01-01T14:57:24;1.10;;;0.70;;
65187;SDS011;51775;51.148;6.950;2023-01-01T14:59:54;1.52;;;0.80;;
65187;SDS011;51775;51.148;6.950;2023-01-01T15:02:20;1.85;;;0.80;;
65187;SDS011;51775;51.148;6.950;2023-01-01T15:04:47;1.50;;;0.73;;
65187;SDS011;51775;51.148;6.950;2023-01-01T15:07:29;2.10;;;0.90;;
65187;SDS011;51775;51.148;6.950;2023-01-01T15:09:56;1.77;;;0.75;;
65187;SDS011;51775;51.148;6.950;2023-01-01T15:12:23;1.38;;;0.82;;
65187;SDS011;51775;51.148;6.950;2023-01-01T15:14:49;1.30;;;0.80;;
65187;SDS011;51775;51.148;6.950;2023-01-01T15:17:19;1.35;;;0.80;;
65187;SDS011;51775;51.148;6.950;2023-01-01T15:19:58;1.45;;;0.70;;
65187;SDS011;51775;51.148;6.950;2023-01-01T15:22:29;1.70;;;0.93;;
65187;SDS011;51775;51.148;6.950;2023-01-01T15:24:59;1.58;;;0.82;;
65187;SDS011;51775;51.148;6.950;2023-01-01T15:27:27;1.30;;;0.80;;
65187;SDS011;51775;51.148;6.950;2023-01-01T15:29:54;2.83;;;0.98;;
65187;SDS011;51775;51.148;6.950;2023-01-01T15:32:36;1.52;;;0.73;;
65187;SDS011;51775;51.148;6.950;2023-01-01T15:35:03;1.52;;;0.80;;
65187;SDS011;51775;51.148;6.950;2023-01-01T15:37:34;2.63;;;0.80;;
65187;SDS011;51775;51.148;6.950;2023-01-01T15:42:38;1.80;;;0.80;;
65187;SDS011;51775;51.148;6.950;2023-01-01T15:47:44;3.53;;;0.90;;
65187;SDS011;51775;51.148;6.950;2023-01-01T15:50:22;2.00;;;1.00;;
65187;SDS011;51775;51.148;6.950;2023-01-01T15:52:50;2.22;;;0.90;;
65187;SDS011;51775;51.148;6.950;2023-01-01T15:55:21;1.98;;;0.80;;
65187;SDS011;51775;51.148;6.950;2023-01-01T15:57:50;1.88;;;0.80;;
65187;SDS011;51775;51.148;6.950;2023-01-01T16:00:17;1.73;;;0.85;;
65187;SDS011;51775;51.148;6.950;2023-01-01T16:02:47;1.35;;;0.77;;
65187;SDS011;51775;51.148;6.950;2023-01-01T16:05:16;1.95;;;0.73;;
65187;SDS011;51775;51.148;6.950;2023-01-01T16:07:55;2.90;;;0.77;;
65187;SDS011;51775;51.148;6.950;2023-01-01T16:10:24;1.75;;;0.80;;
65187;SDS011;51775;51.148;6.950;2023-01-01T16:12:50;1.27;;;0.73;;
65187;SDS011;51775;51.148;6.950;2023-01-01T16:15:15;4.03;;;0.70;;
65187;SDS011;51775;51.148;6.950;2023-01-01T16:17:41;0.75;;;0.52;;
65187;SDS011;51775;51.148;6.950;2023-01-01T16:20:12;1.30;;;0.75;;
65187;SDS011;51775;51.148;6.950;2023-01-01T16:22:38;1.08;;;0.70;;
65187;SDS011;51775;51.148;6.950;2023-01-01T16:25:13;1.83;;;0.65;;
65187;SDS011;51775;51.148;6.950;2023-01-01T16:27:40;1.27;;;0.63;;
65187;SDS011;51775;51.148;6.950;2023-01-01T16:30:05;1.15;;;0.70;;
65187;SDS011;51775;51.148;6.950;2023-01-01T16:32:31;0.98;;;0.57;;
65187;SDS011;51775;51.148;6.950;2023-01-01T16:34:56;1.13;;;0.70;;
65187;SDS011;51775;51.148;6.950;2023-01-01T16:37:22;1.17;;;0.63;;
65187;SDS011;51775;51.148;6.950;2023-01-01T16:39:47;1.50;;;0.80;;
65187;SDS011;51775;51.148;6.950;2023-01-01T16:42:13;1.13;;;0.80;;
65187;SDS011;51775;51.148;6.950;2023-01-01T16:44:41;1.40;;;0.70;;
65187;SDS011;51775;51.148;6.950;2023-01-01T16:47:07;2.08;;;0.80;;
65187;SDS011;51775;51.148;6.950;2023-01-01T16:49:32;1.27;;;0.80;;
65187;SDS011;51775;51.148;6.950;2023-01-01T16:51:57;1.30;;;0.80;;
65187;SDS011;51775;51.148;6.950;2023-01-01T16:54:23;2.17;;;0.80;;
65187;SDS011;51775;51.148;6.950;2023-01-01T16:56:48;1.70;;;0.80;;
65187;SDS011;51775;51.148;6.950;2023-01-01T16:59:13;1.83;;;0.90;;
65187;SDS011;51775;51.148;6.950;2023-01-01T17:01:39;1.48;;;0.70;;